sensor_id;sensor_type;location;lat;lon;timestamp;P1;durP1;ratioP1;P2;durP2;ratioP2
72037;SDS011;59900;50.788;12.904;2023-10-09T00:00:26;3.40;;;1.60;;
72037;SDS011;59900;50.788;12.904;2023-10-09T00:03:03;4.07;;;2.17;;
72037;SDS011;59900;50.788;12.904;2023-10-09T00:05:29;4.50;;;2.07;;
72037;SDS011;59900;50.788;12.904;2023-10-09T00:08:11;5.10;;;1.85;;
72037;SDS011;59900;50.788;12.904;2023-10-09T00:10:44;3.42;;;1.77;;
72037;SDS011;59900;50.788;12.904;2023-10-09T00:13:23;3.97;;;2.22;;
72037;SDS011;59900;50.788;12.904;2023-10-09T00:16:03;4.60;;;2.30;;
72037;SDS011;59900;50.788;12.904;2023-10-09T00:18:39;3.80;;;2.03;;
72037;SDS011;59900;50.788;12.904;2023-10-09T00:21:15;3.97;;;1.92;;
72037;SDS011;59900;50.788;12.904;2023-10-09T00:23:47;4.15;;;1.92;;
72037;SDS011;59900;50.788;12.904;2023-10-09T00:26:20;3.83;;;1.90;;
72037;SDS011;59900;50.788;12.904;2023-10-09T00:28:46;3.80;;;2.10;;
72037;SDS011;59900;50.788;12.904;2023-10-09T00:31:16;5.65;;;2.17;;
72037;SDS011;59900;50.788;12.904;2023-10-09T00:33:51;4.38;;;2.08;;
72037;SDS011;59900;50.788;12.904;2023-10-09T00:36:17;4.65;;;2.05;;
72037;SDS011;59900;50.788;12.904;2023-10-09T00:38:52;4.60;;;2.27;;
72037;SDS011;59900;50.788;12.904;2023-10-09T00:41:17;5.47;;;1.90;;
72037;SDS011;59900;50.788;12.904;2023-10-09T00:43:47;5.63;;;1.80;;
72037;SDS011;59900;50.788;12.904;2023-10-09T00:46:14;4.40;;;1.88;;
72037;SDS011;59900;50.788;12.904;2023-10-09T00:48:44;3.85;;;2.00;;
72037;SDS011;59900;50.788;12.904;2023-10-09T00:51:12;3.58;;;1.70;;
72037;SDS011;59900;50.788;12.904;2023-10-09T00:53:47;3.30;;;1.60;;
72037;SDS011;59900;50.788;12.904;2023-10-09T00:56:16;3.78;;;1.95;;
72037;SDS011;59900;50.788;12.904;2023-10-09T00:59:06;3.65;;;2.00;;
72037;SDS011;59900;50.788;12.904;2023-10-09T01:01:39;3.83;;;1.85;;
72037;SDS011;59900;50.788;12.904;2023-10-09T01:04:10;4.75;;;2.35;;
72037;SDS011;59900;50.788;12.904;2023-10-09T01:06:37;5.27;;;1.90;;
72037;SDS011;59900;50.788;12.904;2023-10-09T01:09:10;4.40;;;1.92;;
72037;SDS011;59900;50.788;12.904;2023-10-09T01:11:36;4.78;;;2.20;;
72037;SDS011;59900;50.788;12.904;2023-10-09T01:14:27;5.68;;;1.90;;
72037;SDS011;59900;50.788;12.904;2023-10-09T01:16:53;4.33;;;2.03;;
72037;SDS011;59900;50.788;12.904;2023-10-09T01:19:22;3.38;;;1.83;;
72037;SDS011;59900;50.788;12.904;2023-10-09T01:21:53;5.10;;;2.63;;
72037;SDS011;59900;50.788;12.904;2023-10-09T01:24:19;5.63;;;2.37;;
72037;SDS011;59900;50.788;12.904;2023-10-09T01:26:46;4.60;;;1.95;;
72037;SDS011;59900;50.788;12.904;2023-10-09T01:29:18;4.72;;;2.17;;
72037;SDS011;59900;50.788;12.904;2023-10-09T01:31:46;5.40;;;2.15;;
72037;SDS011;59900;50.788;12.904;2023-10-09T01:34:31;5.13;;;2.60;;
72037;SDS011;59900;50.788;12.904;2023-10-09T01:37:07;4.97;;;2.20;;
72037;SDS011;59900;50.788;12.904;2023-10-09T01:39:54;4.55;;;2.20;;
72037;SDS011;59900;50.788;12.904;2023-10-09T01:42:23;4.97;;;2.67;;
72037;SDS011;59900;50.788;12.904;2023-10-09T01:44:55;4.65;;;2.40;;
72037;SDS011;59900;50.788;12.904;2023-10-09T01:47:23;5.40;;;2.20;;
72037;SDS011;59900;50.788;12.904;2023-10-09T01:49:50;5.57;;;2.63;;
72037;SDS011;59900;50.788;12.904;2023-10-09T01:52:18;4.93;;;1.92;;
72037;SDS011;59900;50.788;12.904;2023-10-09T01:54:45;5.63;;;2.40;;
72037;SDS011;59900;50.788;12.904;2023-10-09T01:57:16;5.78;;;2.50;;
72037;SDS011;59900;50.788;12.904;2023-10-09T01:59:47;5.72;;;2.60;;
72037;SDS011;59900;50.788;12.904;2023-10-09T02:02:14;6.37;;;3.43;;
72037;SDS011;59900;50.788;12.904;2023-10-09T02:05:03;6.30;;;2.88;;
72037;SDS011;59900;50.788;12.904;2023-10-09T02:07:50;8.70;;;3.28;;
72037;SDS011;59900;50.788;12.904;2023-10-09T02:10:16;5.85;;;2.88;;
72037;SDS011;59900;50.788;12.904;2023-10-09T02:12:58;7.55;;;3.05;;
72037;SDS011;59900;50.788;12.904;2023-10-09T02:15:25;7.20;;;3.63;;
72037;SDS011;59900;50.788;12.904;2023-10-09T02:18:17;7.95;;;3.75;;
72037;SDS011;59900;50.788;12.904;2023-10-09T02:23:38;8.80;;;3.80;;
72037;SDS011;59900;50.788;12.904;2023-10-09T02:26:12;12.07;;;4.70;;
72037;SDS011;59900;50.788;12.904;2023-10-09T02:28:51;8.37;;;4.10;;
72037;SDS011;59900;50.788;12.904;2023-10-09T02:31:29;9.75;;;3.95;;
72037;SDS011;59900;50.788;12.904;2023-10-09T02:34:04;7.95;;;3.78;;
72037;SDS011;59900;50.788;12.904;2023-10-09T02:36:30;11.50;;;3.67;;
72037;SDS011;59900;50.788;12.904;2023-10-09T02:38:55;13.40;;;4.60;;
72037;SDS011;59900;50.788;12.904;2023-10-09T02:41:21;11.98;;;4.45;;
72037;SDS011;59900;50.788;12.904;2023-10-09T02:43:47;13.13;;;4.10;;
72037;SDS011;59900;50.788;12.904;2023-10-09T02:46:15;13.38;;;4.55;;
72037;SDS011;59900;50.788;12.904;2023-10-09T02:48:48;12.02;;;4.85;;
72037;SDS011;59900;50.788;12.904;2023-10-09T02:51:21;9.98;;;4.40;;
72037;SDS011;59900;50.788;12.904;2023-10-09T02:53:53;12.68;;;5.15;;
72037;SDS011;59900;50.788;12.904;2023-10-09T02:56:21;13.90;;;5.93;;
72037;SDS011;59900;50.788;12.904;2023-10-09T02:58:52;16.80;;;5.30;;
72037;SDS011;59900;50.788;12.904;2023-10-09T03:01:17;13.48;;;5.30;;
72037;SDS011;59900;50.788;12.904;2023-10-09T03:03:43;14.40;;;5.70;;
72037;SDS011;59900;50.788;12.904;2023-10-09T03:06:15;15.82;;;5.93;;
72037;SDS011;59900;50.788;12.904;2023-10-09T03:08:53;18.27;;;6.60;;
72037;SDS011;59900;50.788;12.904;2023-10-09T03:11:19;14.27;;;5.90;;
72037;SDS011;59900;50.788;12.904;2023-10-09T03:13:45;14.20;;;5.80;;
72037;SDS011;59900;50.788;12.904;2023-10-09T03:16:13;16.57;;;6.53;;
72037;SDS011;59900;50.788;12.904;2023-10-09T03:18:45;15.52;;;5.55;;
72037;SDS011;59900;50.788;12.904;2023-10-09T03:21:12;14.43;;;5.93;;
72037;SDS011;59900;50.788;12.904;2023-10-09T03:23:37;15.13;;;6.00;;
72037;SDS011;59900;50.788;12.904;2023-10-09T03:26:03;15.63;;;5.63;;
72037;SDS011;59900;50.788;12.904;2023-10-09T03:28:29;16.43;;;5.40;;
72037;SDS011;59900;50.788;12.904;2023-10-09T03:30:54;12.77;;;5.27;;
72037;SDS011;59900;50.788;12.904;2023-10-09T03:33:20;13.30;;;5.27;;
72037;SDS011;59900;50.788;12.904;2023-10-09T03:35:45;16.23;;;5.53;;
72037;SDS011;59900;50.788;12.904;2023-10-09T03:38:10;14.30;;;5.53;;
72037;SDS011;59900;50.788;12.904;2023-10-09T03:40:41;13.60;;;5.25;;
72037;SDS011;59900;50.788;12.904;2023-10-09T03:43:08;13.93;;;5.63;;
72037;SDS011;59900;50.788;12.904;2023-10-09T03:45:36;13.80;;;5.68;;
72037;SDS011;59900;50.788;12.904;2023-10-09T03:48:03;12.90;;;4.90;;
72037;SDS011;59900;50.788;12.904;2023-10-09T03:50:46;11.68;;;5.15;;
72037;SDS011;59900;50.788;12.904;2023-10-09T03:53:12;13.75;;;5.72;;
72037;SDS011;59900;50.788;12.904;2023-10-09T03:55:38;15.50;;;5.15;;
72037;SDS011;59900;50.788;12.904;2023-10-09T03:58:04;11.05;;;5.20;;
72037;SDS011;59900;50.788;12.904;2023-10-09T04:00:31;14.23;;;4.93;;
72037;SDS011;59900;50.788;12.904;2023-10-09T04:03:05;15.57;;;5.97;;
72037;SDS011;59900;50.788;12.904;2023-10-09T04:05:31;13.00;;;5.47;;
72037;SDS011;59900;50.788;12.904;2023-10-09T04:07:56;14.67;;;6.47;;
72037;SDS011;59900;50.788;12.904;2023-10-09T04:10:23;13.47;;;5.30;;
72037;SDS011;59900;50.788;12.904;2023-10-09T04:13:07;13.10;;;4.95;;
72037;SDS011;59900;50.788;12.904;2023-10-09T04:15:38;13.27;;;5.53;;
72037;SDS011;59900;50.788;12.904;2023-10-09T04:18:07;13.23;;;5.35;;
72037;SDS011;59900;50.788;12.904;2023-10-09T04:20:39;12.88;;;5.45;;
72037;SDS011;59900;50.788;12.904;2023-10-09T04:23:23;10.67;;;5.70;;
72037;SDS011;59900;50.788;12.904;2023-10-09T04:26:00;12.70;;;5.25;;
72037;SDS011;59900;50.788;12.904;2023-10-09T04:28:35;11.38;;;4.97;;
72037;SDS011;59900;50.788;12.904;2023-10-09T04:31:01;14.25;;;5.78;;
72037;SDS011;59900;50.788;12.904;2023-10-09T04:33:31;10.50;;;4.72;;
72037;SDS011;59900;50.788;12.904;2023-10-09T04:36:02;14.10;;;4.90;;
72037;SDS011;59900;50.788;12.904;2023-10-09T04:39:00;10.30;;;4.50;;
72037;SDS011;59900;50.788;12.904;2023-10-09T04:41:31;11.43;;;4.63;;
72037;SDS011;59900;50.788;12.904;2023-10-09T04:44:09;13.90;;;5.32;;
72037;SDS011;59900;50.788;12.904;2023-10-09T04:46:41;12.13;;;5.32;;
72037;SDS011;59900;50.788;12.904;2023-10-09T04:49:12;17.37;;;5.80;;
72037;SDS011;59900;50.788;12.904;2023-10-09T04:51:53;12.10;;;5.80;;
72037;SDS011;59900;50.788;12.904;2023-10-09T04:54:43;11.35;;;5.38;;
72037;SDS011;59900;50.788;12.904;2023-10-09T04:57:27;11.88;;;5.32;;
72037;SDS011;59900;50.788;12.904;2023-10-09T04:59:52;13.57;;;5.50;;
72037;SDS011;59900;50.788;12.904;2023-10-09T05:02:23;12.48;;;5.32;;
72037;SDS011;59900;50.788;12.904;2023-10-09T05:04:49;12.90;;;5.33;;
72037;SDS011;59900;50.788;12.904;2023-10-09T05:07:34;16.70;;;6.03;;
72037;SDS011;59900;50.788;12.904;2023-10-09T05:10:18;14.48;;;5.70;;
72037;SDS011;59900;50.788;12.904;2023-10-09T05:12:49;13.25;;;5.72;;
72037;SDS011;59900;50.788;12.904;2023-10-09T05:15:22;17.10;;;6.45;;
72037;SDS011;59900;50.788;12.904;2023-10-09T05:17:52;13.50;;;6.20;;
72037;SDS011;59900;50.788;12.904;2023-10-09T05:20:21;12.90;;;6.07;;
72037;SDS011;59900;50.788;12.904;2023-10-09T05:22:52;14.10;;;5.60;;
72037;SDS011;59900;50.788;12.904;2023-10-09T05:25:22;16.60;;;5.72;;
72037;SDS011;59900;50.788;12.904;2023-10-09T05:28:08;14.88;;;6.18;;
72037;SDS011;59900;50.788;12.904;2023-10-09T05:30:52;17.07;;;6.40;;
72037;SDS011;59900;50.788;12.904;2023-10-09T05:33:31;12.75;;;5.47;;
72037;SDS011;59900;50.788;12.904;2023-10-09T05:35:58;12.52;;;5.57;;
72037;SDS011;59900;50.788;12.904;2023-10-09T05:38:44;12.75;;;6.10;;
72037;SDS011;59900;50.788;12.904;2023-10-09T05:41:23;12.45;;;5.95;;
72037;SDS011;59900;50.788;12.904;2023-10-09T05:44:07;11.57;;;5.77;;
72037;SDS011;59900;50.788;12.904;2023-10-09T05:46:51;14.05;;;5.30;;
72037;SDS011;59900;50.788;12.904;2023-10-09T05:49:35;13.70;;;6.18;;
72037;SDS011;59900;50.788;12.904;2023-10-09T05:52:20;13.77;;;5.82;;
72037;SDS011;59900;50.788;12.904;2023-10-09T05:54:57;13.38;;;6.40;;
72037;SDS011;59900;50.788;12.904;2023-10-09T05:57:46;12.90;;;5.83;;
72037;SDS011;59900;50.788;12.904;2023-10-09T06:00:20;13.40;;;5.38;;
72037;SDS011;59900;50.788;12.904;2023-10-09T06:03:04;12.98;;;6.18;;
72037;SDS011;59900;50.788;12.904;2023-10-09T06:05:44;13.48;;;6.25;;
72037;SDS011;59900;50.788;12.904;2023-10-09T06:08:24;14.60;;;6.15;;
72037;SDS011;59900;50.788;12.904;2023-10-09T06:11:06;13.80;;;6.20;;
72037;SDS011;59900;50.788;12.904;2023-10-09T06:13:51;15.70;;;6.55;;
72037;SDS011;59900;50.788;12.904;2023-10-09T06:16:28;12.57;;;6.10;;
72037;SDS011;59900;50.788;12.904;2023-10-09T06:19:12;15.93;;;6.22;;
72037;SDS011;59900;50.788;12.904;2023-10-09T06:21:45;13.02;;;6.00;;
72037;SDS011;59900;50.788;12.904;2023-10-09T06:24:18;17.13;;;6.50;;
72037;SDS011;59900;50.788;12.904;2023-10-09T06:26:44;14.20;;;5.80;;
72037;SDS011;59900;50.788;12.904;2023-10-09T06:29:26;14.20;;;6.45;;
72037;SDS011;59900;50.788;12.904;2023-10-09T06:32:01;14.20;;;6.10;;
72037;SDS011;59900;50.788;12.904;2023-10-09T06:35:07;15.50;;;6.22;;
72037;SDS011;59900;50.788;12.904;2023-10-09T06:37:50;15.23;;;5.97;;
72037;SDS011;59900;50.788;12.904;2023-10-09T06:43:15;13.98;;;6.15;;
72037;SDS011;59900;50.788;12.904;2023-10-09T06:45:46;14.63;;;7.13;;
72037;SDS011;59900;50.788;12.904;2023-10-09T06:48:19;19.50;;;6.78;;
72037;SDS011;59900;50.788;12.904;2023-10-09T06:51:02;14.63;;;6.90;;
72037;SDS011;59900;50.788;12.904;2023-10-09T06:53:48;14.77;;;6.60;;
72037;SDS011;59900;50.788;12.904;2023-10-09T06:59:00;14.85;;;6.50;;
72037;SDS011;59900;50.788;12.904;2023-10-09T07:01:42;14.75;;;6.45;;
72037;SDS011;59900;50.788;12.904;2023-10-09T07:04:08;16.93;;;7.37;;
72037;SDS011;59900;50.788;12.904;2023-10-09T07:06:52;17.92;;;7.25;;
72037;SDS011;59900;50.788;12.904;2023-10-09T07:09:18;16.70;;;7.33;;
72037;SDS011;59900;50.788;12.904;2023-10-09T07:11:47;15.82;;;7.68;;
72037;SDS011;59900;50.788;12.904;2023-10-09T07:16:57;16.63;;;7.13;;
72037;SDS011;59900;50.788;12.904;2023-10-09T07:19:23;15.97;;;7.30;;
72037;SDS011;59900;50.788;12.904;2023-10-09T07:22:11;17.15;;;7.07;;
72037;SDS011;59900;50.788;12.904;2023-10-09T07:24:56;13.15;;;6.82;;
72037;SDS011;59900;50.788;12.904;2023-10-09T07:27:31;14.98;;;6.80;;
72037;SDS011;59900;50.788;12.904;2023-10-09T07:30:09;14.48;;;7.47;;
72037;SDS011;59900;50.788;12.904;2023-10-09T07:32:54;18.87;;;6.50;;
72037;SDS011;59900;50.788;12.904;2023-10-09T07:35:21;16.55;;;6.90;;
72037;SDS011;59900;50.788;12.904;2023-10-09T07:38:11;17.40;;;7.10;;
72037;SDS011;59900;50.788;12.904;2023-10-09T07:40:44;16.67;;;6.72;;
72037;SDS011;59900;50.788;12.904;2023-10-09T07:43:32;18.45;;;7.90;;
72037;SDS011;59900;50.788;12.904;2023-10-09T07:46:07;25.00;;;7.40;;
72037;SDS011;59900;50.788;12.904;2023-10-09T07:48:52;14.70;;;6.72;;
72037;SDS011;59900;50.788;12.904;2023-10-09T07:51:18;16.58;;;7.05;;
72037;SDS011;59900;50.788;12.904;2023-10-09T07:53:48;15.77;;;7.65;;
72037;SDS011;59900;50.788;12.904;2023-10-09T07:56:25;17.47;;;6.33;;
72037;SDS011;59900;50.788;12.904;2023-10-09T07:58:55;16.38;;;6.60;;
72037;SDS011;59900;50.788;12.904;2023-10-09T08:01:25;15.27;;;6.50;;
72037;SDS011;59900;50.788;12.904;2023-10-09T08:03:53;15.27;;;6.95;;
72037;SDS011;59900;50.788;12.904;2023-10-09T08:06:25;15.27;;;6.57;;
72037;SDS011;59900;50.788;12.904;2023-10-09T08:09:09;13.20;;;6.20;;
72037;SDS011;59900;50.788;12.904;2023-10-09T08:11:38;16.27;;;6.40;;
72037;SDS011;59900;50.788;12.904;2023-10-09T08:14:10;16.25;;;6.47;;
72037;SDS011;59900;50.788;12.904;2023-10-09T08:16:54;15.15;;;6.10;;
72037;SDS011;59900;50.788;12.904;2023-10-09T08:19:39;14.95;;;6.82;;
72037;SDS011;59900;50.788;12.904;2023-10-09T08:22:25;13.23;;;5.97;;
72037;SDS011;59900;50.788;12.904;2023-10-09T08:24:53;16.63;;;6.03;;
72037;SDS011;59900;50.788;12.904;2023-10-09T08:27:29;14.10;;;6.32;;
72037;SDS011;59900;50.788;12.904;2023-10-09T08:32:42;14.20;;;5.95;;
72037;SDS011;59900;50.788;12.904;2023-10-09T08:35:25;15.47;;;6.50;;
72037;SDS011;59900;50.788;12.904;2023-10-09T08:37:57;17.02;;;6.40;;
72037;SDS011;59900;50.788;12.904;2023-10-09T08:40:31;13.07;;;5.93;;
72037;SDS011;59900;50.788;12.904;2023-10-09T08:42:58;11.77;;;5.82;;
72037;SDS011;59900;50.788;12.904;2023-10-09T08:45:34;16.92;;;6.78;;
72037;SDS011;59900;50.788;12.904;2023-10-09T08:48:04;16.27;;;6.20;;
72037;SDS011;59900;50.788;12.904;2023-10-09T08:50:31;16.73;;;6.28;;
72037;SDS011;59900;50.788;12.904;2023-10-09T08:52:57;16.40;;;6.75;;
72037;SDS011;59900;50.788;12.904;2023-10-09T08:55:22;15.87;;;6.40;;
72037;SDS011;59900;50.788;12.904;2023-10-09T08:57:47;14.13;;;6.03;;
72037;SDS011;59900;50.788;12.904;2023-10-09T09:00:17;13.95;;;6.18;;
72037;SDS011;59900;50.788;12.904;2023-10-09T09:02:48;13.90;;;6.57;;
72037;SDS011;59900;50.788;12.904;2023-10-09T09:05:17;14.63;;;6.80;;
72037;SDS011;59900;50.788;12.904;2023-10-09T09:07:43;15.47;;;6.17;;
72037;SDS011;59900;50.788;12.904;2023-10-09T09:10:09;14.98;;;6.18;;
72037;SDS011;59900;50.788;12.904;2023-10-09T09:12:43;15.30;;;5.95;;
72037;SDS011;59900;50.788;12.904;2023-10-09T09:15:18;12.03;;;5.83;;
72037;SDS011;59900;50.788;12.904;2023-10-09T09:17:45;15.00;;;6.10;;
72037;SDS011;59900;50.788;12.904;2023-10-09T09:22:51;12.63;;;5.88;;
72037;SDS011;59900;50.788;12.904;2023-10-09T09:25:18;15.63;;;6.18;;
72037;SDS011;59900;50.788;12.904;2023-10-09T09:27:49;13.13;;;6.10;;
72037;SDS011;59900;50.788;12.904;2023-10-09T09:30:22;13.65;;;6.53;;
72037;SDS011;59900;50.788;12.904;2023-10-09T09:32:49;16.33;;;7.32;;
72037;SDS011;59900;50.788;12.904;2023-10-09T09:35:34;15.95;;;7.25;;
72037;SDS011;59900;50.788;12.904;2023-10-09T09:38:00;15.05;;;6.68;;
72037;SDS011;59900;50.788;12.904;2023-10-09T09:40:30;15.03;;;6.80;;
72037;SDS011;59900;50.788;12.904;2023-10-09T09:43:00;15.52;;;7.20;;
72037;SDS011;59900;50.788;12.904;2023-10-09T09:45:36;14.43;;;6.90;;
72037;SDS011;59900;50.788;12.904;2023-10-09T09:48:03;15.25;;;6.72;;
72037;SDS011;59900;50.788;12.904;2023-10-09T09:50:35;14.50;;;6.88;;
72037;SDS011;59900;50.788;12.904;2023-10-09T09:53:08;14.67;;;6.97;;
72037;SDS011;59900;50.788;12.904;2023-10-09T09:55:41;13.55;;;6.50;;
72037;SDS011;59900;50.788;12.904;2023-10-09T09:58:16;14.48;;;6.30;;
72037;SDS011;59900;50.788;12.904;2023-10-09T10:00:48;14.43;;;6.25;;
72037;SDS011;59900;50.788;12.904;2023-10-09T10:03:38;13.65;;;6.10;;
72037;SDS011;59900;50.788;12.904;2023-10-09T10:06:08;17.60;;;7.07;;
72037;SDS011;59900;50.788;12.904;2023-10-09T10:08:37;14.38;;;6.38;;
72037;SDS011;59900;50.788;12.904;2023-10-09T10:11:04;15.18;;;6.75;;
72037;SDS011;59900;50.788;12.904;2023-10-09T10:16:12;12.82;;;6.07;;
72037;SDS011;59900;50.788;12.904;2023-10-09T10:21:31;14.18;;;6.45;;
72037;SDS011;59900;50.788;12.904;2023-10-09T10:23:57;12.60;;;6.67;;
72037;SDS011;59900;50.788;12.904;2023-10-09T10:26:34;15.40;;;6.67;;
72037;SDS011;59900;50.788;12.904;2023-10-09T10:29:13;12.87;;;6.30;;
72037;SDS011;59900;50.788;12.904;2023-10-09T10:31:58;14.33;;;6.60;;
72037;SDS011;59900;50.788;12.904;2023-10-09T10:37:20;15.02;;;6.93;;
72037;SDS011;59900;50.788;12.904;2023-10-09T10:39:50;16.65;;;6.53;;
72037;SDS011;59900;50.788;12.904;2023-10-09T10:42:15;17.80;;;6.60;;
72037;SDS011;59900;50.788;12.904;2023-10-09T10:44:58;14.95;;;6.72;;
72037;SDS011;59900;50.788;12.904;2023-10-09T10:47:27;17.45;;;7.43;;
72037;SDS011;59900;50.788;12.904;2023-10-09T10:50:00;15.45;;;6.68;;
72037;SDS011;59900;50.788;12.904;2023-10-09T10:52:45;13.57;;;6.57;;
72037;SDS011;59900;50.788;12.904;2023-10-09T10:55:15;14.50;;;7.07;;
72037;SDS011;59900;50.788;12.904;2023-10-09T10:58:25;14.60;;;6.53;;
72037;SDS011;59900;50.788;12.904;2023-10-09T11:01:12;17.17;;;6.88;;
72037;SDS011;59900;50.788;12.904;2023-10-09T11:03:38;15.13;;;6.78;;
72037;SDS011;59900;50.788;12.904;2023-10-09T11:06:29;15.82;;;6.95;;
72037;SDS011;59900;50.788;12.904;2023-10-09T11:09:11;16.13;;;6.83;;
72037;SDS011;59900;50.788;12.904;2023-10-09T11:11:47;15.15;;;6.68;;
72037;SDS011;59900;50.788;12.904;2023-10-09T11:14:14;15.98;;;6.80;;
72037;SDS011;59900;50.788;12.904;2023-10-09T11:16:39;15.03;;;7.13;;
72037;SDS011;59900;50.788;12.904;2023-10-09T11:19:11;13.70;;;6.55;;
72037;SDS011;59900;50.788;12.904;2023-10-09T11:21:53;14.82;;;7.07;;
72037;SDS011;59900;50.788;12.904;2023-10-09T11:24:28;13.52;;;6.65;;
72037;SDS011;59900;50.788;12.904;2023-10-09T11:27:04;13.73;;;6.10;;
72037;SDS011;59900;50.788;12.904;2023-10-09T11:29:31;13.20;;;6.22;;
72037;SDS011;59900;50.788;12.904;2023-10-09T11:32:22;14.82;;;6.43;;
72037;SDS011;59900;50.788;12.904;2023-10-09T11:34:50;14.82;;;6.65;;
72037;SDS011;59900;50.788;12.904;2023-10-09T11:37:35;16.13;;;6.60;;
72037;SDS011;59900;50.788;12.904;2023-10-09T11:40:04;14.60;;;6.90;;
72037;SDS011;59900;50.788;12.904;2023-10-09T11:42:48;12.43;;;6.22;;
72037;SDS011;59900;50.788;12.904;2023-10-09T11:45:21;13.73;;;6.40;;
72037;SDS011;59900;50.788;12.904;2023-10-09T11:47:54;15.80;;;5.60;;
72037;SDS011;59900;50.788;12.904;2023-10-09T11:50:44;15.18;;;6.43;;
72037;SDS011;59900;50.788;12.904;2023-10-09T11:53:44;17.27;;;5.57;;
72037;SDS011;59900;50.788;12.904;2023-10-09T11:56:15;15.57;;;5.97;;
72037;SDS011;59900;50.788;12.904;2023-10-09T11:58:48;13.57;;;5.53;;
72037;SDS011;59900;50.788;12.904;2023-10-09T12:01:18;15.88;;;5.82;;
72037;SDS011;59900;50.788;12.904;2023-10-09T12:03:47;12.73;;;5.53;;
72037;SDS011;59900;50.788;12.904;2023-10-09T12:06:18;17.33;;;6.13;;
72037;SDS011;59900;50.788;12.904;2023-10-09T12:08:47;15.05;;;5.78;;
72037;SDS011;59900;50.788;12.904;2023-10-09T12:11:12;14.13;;;6.00;;
72037;SDS011;59900;50.788;12.904;2023-10-09T12:13:39;12.45;;;5.55;;
72037;SDS011;59900;50.788;12.904;2023-10-09T12:16:07;15.38;;;6.25;;
72037;SDS011;59900;50.788;12.904;2023-10-09T12:18:35;13.63;;;5.57;;
72037;SDS011;59900;50.788;12.904;2023-10-09T12:21:02;14.73;;;5.53;;
72037;SDS011;59900;50.788;12.904;2023-10-09T12:23:28;13.80;;;5.40;;
72037;SDS011;59900;50.788;12.904;2023-10-09T12:25:54;12.35;;;5.35;;
72037;SDS011;59900;50.788;12.904;2023-10-09T12:28:22;14.37;;;6.37;;
72037;SDS011;59900;50.788;12.904;2023-10-09T12:30:48;13.05;;;5.40;;
72037;SDS011;59900;50.788;12.904;2023-10-09T12:33:15;15.80;;;5.78;;
72037;SDS011;59900;50.788;12.904;2023-10-09T12:35:41;16.52;;;6.20;;
72037;SDS011;59900;50.788;12.904;2023-10-09T12:38:10;13.68;;;5.55;;
72037;SDS011;59900;50.788;12.904;2023-10-09T12:40:37;13.50;;;6.13;;
72037;SDS011;59900;50.788;12.904;2023-10-09T12:43:04;14.25;;;5.55;;
72037;SDS011;59900;50.788;12.904;2023-10-09T12:45:33;13.77;;;6.13;;
72037;SDS011;59900;50.788;12.904;2023-10-09T12:47:59;17.63;;;6.43;;
72037;SDS011;59900;50.788;12.904;2023-10-09T12:50:25;14.57;;;5.83;;
72037;SDS011;59900;50.788;12.904;2023-10-09T12:52:56;18.40;;;5.30;;
72037;SDS011;59900;50.788;12.904;2023-10-09T12:55:22;14.57;;;5.90;;
72037;SDS011;59900;50.788;12.904;2023-10-09T12:57:56;12.98;;;5.25;;
72037;SDS011;59900;50.788;12.904;2023-10-09T13:00:25;11.50;;;5.53;;
72037;SDS011;59900;50.788;12.904;2023-10-09T13:02:51;12.57;;;5.03;;
72037;SDS011;59900;50.788;12.904;2023-10-09T13:05:16;11.83;;;5.03;;
72037;SDS011;59900;50.788;12.904;2023-10-09T13:07:51;14.27;;;5.57;;
72037;SDS011;59900;50.788;12.904;2023-10-09T13:10:16;12.38;;;5.00;;
72037;SDS011;59900;50.788;12.904;2023-10-09T13:12:41;13.57;;;5.07;;
72037;SDS011;59900;50.788;12.904;2023-10-09T13:15:07;11.83;;;5.00;;
72037;SDS011;59900;50.788;12.904;2023-10-09T13:17:34;12.75;;;5.72;;
72037;SDS011;59900;50.788;12.904;2023-10-09T13:20:03;13.63;;;5.90;;
72037;SDS011;59900;50.788;12.904;2023-10-09T13:22:37;13.63;;;5.80;;
72037;SDS011;59900;50.788;12.904;2023-10-09T13:25:03;13.20;;;5.95;;
72037;SDS011;59900;50.788;12.904;2023-10-09T13:27:30;14.38;;;5.50;;
72037;SDS011;59900;50.788;12.904;2023-10-09T13:29:59;13.38;;;6.25;;
72037;SDS011;59900;50.788;12.904;2023-10-09T13:32:30;15.90;;;5.80;;
72037;SDS011;59900;50.788;12.904;2023-10-09T13:35:00;14.57;;;6.05;;
72037;SDS011;59900;50.788;12.904;2023-10-09T13:37:28;16.23;;;6.45;;
72037;SDS011;59900;50.788;12.904;2023-10-09T13:39:56;11.93;;;5.57;;
72037;SDS011;59900;50.788;12.904;2023-10-09T13:42:22;16.02;;;6.25;;
72037;SDS011;59900;50.788;12.904;2023-10-09T13:44:50;13.60;;;5.90;;
72037;SDS011;59900;50.788;12.904;2023-10-09T13:47:18;12.27;;;5.20;;
72037;SDS011;59900;50.788;12.904;2023-10-09T13:49:46;15.57;;;6.75;;
72037;SDS011;59900;50.788;12.904;2023-10-09T13:52:18;15.35;;;5.68;;
72037;SDS011;59900;50.788;12.904;2023-10-09T13:54:44;16.60;;;6.93;;
72037;SDS011;59900;50.788;12.904;2023-10-09T13:57:13;14.93;;;6.45;;
72037;SDS011;59900;50.788;12.904;2023-10-09T13:59:40;13.30;;;6.03;;
72037;SDS011;59900;50.788;12.904;2023-10-09T14:02:14;16.23;;;6.13;;
72037;SDS011;59900;50.788;12.904;2023-10-09T14:04:42;16.50;;;6.32;;
72037;SDS011;59900;50.788;12.904;2023-10-09T14:07:08;14.93;;;6.60;;
72037;SDS011;59900;50.788;12.904;2023-10-09T14:09:34;12.07;;;6.03;;
72037;SDS011;59900;50.788;12.904;2023-10-09T14:12:03;13.90;;;6.47;;
72037;SDS011;59900;50.788;12.904;2023-10-09T14:14:33;16.23;;;6.85;;
72037;SDS011;59900;50.788;12.904;2023-10-09T14:16:59;15.60;;;6.07;;
72037;SDS011;59900;50.788;12.904;2023-10-09T14:19:25;14.10;;;7.20;;
72037;SDS011;59900;50.788;12.904;2023-10-09T14:21:50;16.43;;;6.73;;
72037;SDS011;59900;50.788;12.904;2023-10-09T14:24:16;15.82;;;6.85;;
72037;SDS011;59900;50.788;12.904;2023-10-09T14:26:42;15.40;;;6.10;;
72037;SDS011;59900;50.788;12.904;2023-10-09T14:29:10;15.07;;;6.50;;
72037;SDS011;59900;50.788;12.904;2023-10-09T14:31:41;12.27;;;6.33;;
72037;SDS011;59900;50.788;12.904;2023-10-09T14:34:07;12.63;;;6.40;;
72037;SDS011;59900;50.788;12.904;2023-10-09T14:36:34;16.95;;;7.03;;
72037;SDS011;59900;50.788;12.904;2023-10-09T14:39:00;15.87;;;6.80;;
72037;SDS011;59900;50.788;12.904;2023-10-09T14:41:26;13.70;;;7.20;;
72037;SDS011;59900;50.788;12.904;2023-10-09T14:43:53;17.90;;;7.15;;
72037;SDS011;59900;50.788;12.904;2023-10-09T14:46:19;17.20;;;7.60;;
72037;SDS011;59900;50.788;12.904;2023-10-09T14:48:52;13.67;;;6.37;;
72037;SDS011;59900;50.788;12.904;2023-10-09T14:51:19;11.73;;;6.03;;
72037;SDS011;59900;50.788;12.904;2023-10-09T14:53:57;15.25;;;6.50;;
72037;SDS011;59900;50.788;12.904;2023-10-09T14:56:25;16.85;;;6.70;;
72037;SDS011;59900;50.788;12.904;2023-10-09T14:58:57;16.52;;;6.80;;
72037;SDS011;59900;50.788;12.904;2023-10-09T15:01:24;14.17;;;6.30;;
72037;SDS011;59900;50.788;12.904;2023-10-09T15:03:59;12.63;;;6.40;;
72037;SDS011;59900;50.788;12.904;2023-10-09T15:06:25;17.63;;;7.47;;
72037;SDS011;59900;50.788;12.904;2023-10-09T15:08:52;14.13;;;6.55;;
72037;SDS011;59900;50.788;12.904;2023-10-09T15:11:21;12.53;;;6.77;;
72037;SDS011;59900;50.788;12.904;2023-10-09T15:13:48;17.08;;;7.20;;
72037;SDS011;59900;50.788;12.904;2023-10-09T15:16:13;18.63;;;7.20;;
72037;SDS011;59900;50.788;12.904;2023-10-09T15:18:39;14.07;;;6.40;;